createdAt,value
2022-12-14T00:01:22.518Z,10.00
2022-12-14T00:03:50.078Z,9.75
2022-12-14T00:06:20.156Z,10.75
2022-12-14T00:08:49.018Z,11.75
2022-12-14T00:11:16.516Z,9.50
2022-12-14T00:13:44.908Z,10.00
2022-12-14T00:16:17.585Z,11.00
2022-12-14T00:18:45.222Z,10.25
2022-12-14T00:21:14.251Z,10.00
2022-12-14T00:23:45.594Z,9.50
2022-12-14T00:26:14.663Z,9.75
2022-12-14T00:28:42.287Z,12.50
2022-12-14T00:31:10.793Z,7.00
2022-12-14T00:33:38.398Z,10.75
2022-12-14T00:36:06.668Z,9.75
2022-12-14T00:38:34.101Z,11.25
2022-12-14T00:41:03.144Z,10.50
2022-12-14T00:43:30.584Z,7.75
2022-12-14T00:45:58.055Z,10.00
2022-12-14T00:48:26.035Z,9.00
2022-12-14T00:50:54.286Z,11.00
2022-12-14T00:53:21.668Z,9.00
2022-12-14T00:55:49.787Z,9.50
2022-12-14T00:58:19.592Z,11.00
2022-12-14T01:00:47.240Z,7.75
2022-12-14T01:03:15.023Z,9.50
2022-12-14T01:05:48.990Z,2.75
2022-12-14T01:08:16.731Z,8.75
2022-12-14T01:10:44.182Z,11.00
2022-12-14T01:13:11.721Z,11.00
2022-12-14T01:15:40.533Z,3.75
2022-12-14T01:18:07.975Z,9.00
2022-12-14T01:20:35.441Z,8.25
2022-12-14T01:23:03.024Z,8.75
2022-12-14T01:25:30.444Z,8.25
2022-12-14T01:27:57.838Z,8.00
2022-12-14T01:30:25.229Z,9.00
2022-12-14T01:32:53.913Z,9.25
2022-12-14T01:35:21.331Z,9.25
2022-12-14T01:37:49.016Z,8.75
2022-12-14T01:40:16.925Z,9.25
2022-12-14T01:42:44.350Z,8.25
2022-12-14T01:45:18.413Z,10.00
2022-12-14T01:47:48.255Z,8.00
2022-12-14T01:50:21.344Z,9.75
2022-12-14T01:52:49.153Z,9.50
2022-12-14T01:55:17.784Z,8.00
2022-12-14T01:57:48.129Z,2.00
2022-12-14T02:00:16.759Z,9.00
2022-12-14T02:02:46.944Z,9.00
2022-12-14T02:05:14.425Z,2.75
2022-12-14T02:07:43.231Z,9.50
2022-12-14T02:10:16.729Z,9.00
2022-12-14T02:12:46.308Z,9.50
2022-12-14T02:15:13.730Z,8.00
2022-12-14T02:17:42.390Z,7.00
2022-12-14T02:20:10.483Z,9.25
2022-12-14T02:23:00.244Z,8.25
2022-12-14T02:25:40.081Z,7.25
2022-12-14T02:28:30.810Z,7.00
2022-12-14T02:31:02.320Z,7.25
2022-12-14T02:33:36.283Z,7.00
2022-12-14T02:36:06.480Z,9.00
2022-12-14T02:38:42.799Z,9.50
2022-12-14T02:41:12.797Z,7.75
2022-12-14T02:43:45.665Z,8.50
2022-12-14T02:46:19.151Z,9.50
2022-12-14T02:48:48.976Z,8.00
2022-12-14T02:51:19.420Z,8.00
2022-12-14T02:53:48.605Z,9.25
2022-12-14T02:56:18.741Z,9.50
2022-12-14T02:58:48.806Z,6.25
2022-12-14T03:01:18.672Z,8.00
2022-12-14T03:03:46.185Z,7.00
2022-12-14T03:06:26.045Z,8.00
2022-12-14T03:08:55.374Z,7.25
2022-12-14T03:11:24.637Z,6.00
2022-12-14T03:13:53.789Z,7.00
2022-12-14T03:16:24.612Z,8.00
2022-12-14T03:18:53.021Z,9.75
2022-12-14T03:21:22.583Z,7.75
2022-12-14T03:23:50.666Z,6.50
2022-12-14T03:26:19.320Z,8.00
2022-12-14T03:28:48.109Z,7.00
2022-12-14T03:31:16.956Z,7.25
2022-12-14T03:33:45.853Z,6.25
2022-12-14T03:36:15.238Z,7.25
2022-12-14T03:38:43.719Z,8.00
2022-12-14T03:41:16.308Z,8.50
2022-12-14T03:43:50.366Z,7.25
2022-12-14T03:46:19.715Z,6.00
2022-12-14T03:48:49.462Z,7.00
2022-12-14T03:51:21.027Z,8.00
2022-12-14T03:53:50.353Z,8.50
2022-12-14T03:56:19.735Z,6.00
2022-12-14T03:58:56.780Z,7.50
2022-12-14T04:01:28.670Z,8.25
2022-12-14T04:03:58.775Z,7.00
2022-12-14T04:06:30.155Z,7.50
2022-12-14T04:09:05.068Z,10.25
2022-12-14T04:11:53.313Z,8.50
2022-12-14T04:14:40.067Z,9.25
2022-12-14T04:17:27.941Z,9.00
2022-12-14T04:19:57.721Z,9.00
2022-12-14T04:22:26.504Z,8.00
2022-12-14T04:25:13.074Z,9.75
2022-12-14T04:27:41.944Z,8.00
2022-12-14T04:30:09.746Z,9.50
2022-12-14T04:32:38.012Z,7.50
2022-12-14T04:35:10.414Z,8.50
2022-12-14T04:37:38.192Z,9.75
2022-12-14T04:40:07.110Z,8.00
2022-12-14T04:42:36.622Z,8.00
2022-12-14T04:45:06.375Z,8.25
2022-12-14T04:47:35.983Z,9.75
2022-12-14T04:50:04.606Z,9.00
2022-12-14T04:52:34.419Z,7.50
2022-12-14T04:55:04.262Z,7.25
2022-12-14T04:57:35.040Z,9.00
2022-12-14T05:00:02.440Z,9.25
2022-12-14T05:02:33.826Z,8.00
2022-12-14T05:05:04.636Z,9.00
2022-12-14T05:07:38.188Z,11.00
2022-12-14T05:10:07.152Z,6.50
2022-12-14T05:12:37.468Z,7.25
2022-12-14T05:15:06.764Z,10.50
2022-12-14T05:17:36.146Z,8.25
2022-12-14T05:20:03.545Z,6.00
2022-12-14T05:22:30.986Z,8.00
2022-12-14T05:24:59.670Z,7.25
2022-12-14T05:27:27.074Z,7.00
2022-12-14T05:29:54.469Z,6.75
2022-12-14T05:32:21.864Z,7.00
2022-12-14T05:34:49.251Z,7.00
2022-12-14T05:37:18.531Z,5.50
2022-12-14T05:39:46.075Z,6.25
2022-12-14T05:42:14.764Z,6.75
2022-12-14T05:44:42.179Z,6.00
2022-12-14T05:47:10.612Z,7.00
2022-12-14T05:49:38.055Z,5.50
2022-12-14T05:52:05.870Z,7.00
2022-12-14T05:54:33.263Z,5.50
2022-12-14T05:57:00.649Z,7.00
2022-12-14T05:59:29.350Z,6.00
2022-12-14T06:01:56.833Z,5.50
2022-12-14T06:04:24.270Z,7.50
2022-12-14T06:06:51.711Z,5.75
2022-12-14T06:09:19.152Z,6.25
2022-12-14T06:11:46.869Z,6.00
2022-12-14T06:14:14.343Z,4.75
2022-12-14T06:16:43.569Z,4.50
2022-12-14T06:19:11.379Z,6.00
2022-12-14T06:21:39.497Z,6.00
2022-12-14T06:24:07.450Z,5.75
2022-12-14T06:26:36.660Z,3.75
2022-12-14T06:29:04.358Z,6.00
2022-12-14T06:31:32.451Z,6.25
2022-12-14T06:34:02.433Z,6.00
2022-12-14T06:36:30.741Z,6.00
2022-12-14T06:38:58.761Z,5.00
2022-12-14T06:41:26.239Z,6.00
2022-12-14T06:43:53.677Z,5.00
2022-12-14T06:46:22.593Z,7.00
2022-12-14T06:48:50.489Z,5.25
2022-12-14T06:51:19.358Z,4.75
2022-12-14T06:53:47.226Z,5.50
2022-12-14T06:56:15.398Z,4.00
2022-12-14T06:58:42.812Z,5.00
2022-12-14T07:01:11.036Z,6.25
2022-12-14T07:03:41.297Z,4.25
2022-12-14T07:06:08.927Z,5.00
2022-12-14T07:08:38.194Z,5.00
2022-12-14T07:11:06.571Z,6.00
2022-12-14T07:13:33.989Z,4.50
2022-12-14T07:16:01.446Z,3.00
2022-12-14T07:18:28.997Z,4.00
2022-12-14T07:20:57.702Z,4.00
2022-12-14T07:23:28.066Z,8.00
2022-12-14T07:26:03.679Z,6.00
2022-12-14T07:28:31.073Z,6.25
2022-12-14T07:30:59.002Z,6.00
2022-12-14T07:33:27.052Z,8.25
2022-12-14T07:36:02.243Z,8.00
2022-12-14T07:38:29.646Z,6.00
2022-12-14T07:41:04.293Z,6.25
2022-12-14T07:43:31.678Z,7.25
2022-12-14T07:46:01.640Z,6.75
2022-12-14T07:48:29.096Z,6.00
2022-12-14T07:50:56.519Z,6.75
2022-12-14T07:53:23.953Z,5.00
2022-12-14T07:55:51.429Z,5.25
2022-12-14T07:58:20.127Z,6.00
2022-12-14T08:00:48.318Z,6.00
2022-12-14T08:03:15.927Z,8.00
2022-12-14T08:05:43.319Z,7.00
2022-12-14T08:08:11.057Z,7.00
2022-12-14T08:10:40.472Z,7.00
2022-12-14T08:13:08.110Z,6.25
2022-12-14T08:15:39.314Z,6.75
2022-12-14T08:18:06.826Z,7.25
2022-12-14T08:20:35.181Z,7.25
2022-12-14T08:23:02.612Z,8.50
2022-12-14T08:25:29.999Z,7.00
2022-12-14T08:27:57.587Z,7.00
2022-12-14T08:30:25.099Z,8.00
2022-12-14T08:32:53.939Z,8.25
2022-12-14T08:35:21.327Z,7.75
2022-12-14T08:37:48.735Z,1.75
2022-12-14T08:40:16.141Z,8.00
2022-12-14T08:42:43.594Z,7.75
2022-12-14T08:45:11.847Z,9.00
2022-12-14T08:47:39.256Z,6.50
2022-12-14T08:50:08.980Z,9.00
2022-12-14T08:52:36.384Z,8.50
2022-12-14T08:55:03.808Z,8.00
2022-12-14T08:57:31.220Z,9.00
2022-12-14T09:00:01.743Z,9.50
2022-12-14T09:02:29.796Z,8.00
2022-12-14T09:04:57.289Z,6.00
2022-12-14T09:07:26.002Z,8.25
2022-12-14T09:09:53.422Z,8.50
2022-12-14T09:12:20.815Z,9.50
2022-12-14T09:14:49.526Z,7.00
2022-12-14T09:17:17.070Z,9.00
2022-12-14T09:19:44.541Z,7.25
2022-12-14T09:22:13.292Z,7.00
2022-12-14T09:24:42.037Z,9.00
2022-12-14T09:27:09.673Z,7.75
2022-12-14T09:29:37.069Z,7.50
2022-12-14T09:32:04.728Z,7.25
2022-12-14T09:34:32.166Z,8.00
2022-12-14T09:37:04.428Z,9.00
2022-12-14T09:39:31.983Z,9.00
2022-12-14T09:42:08.603Z,8.00
2022-12-14T09:44:47.151Z,7.75
2022-12-14T09:47:16.433Z,7.50
2022-12-14T09:49:46.417Z,7.75
2022-12-14T09:52:16.116Z,5.00
2022-12-14T09:54:43.941Z,7.00
2022-12-14T09:57:14.861Z,8.00
2022-12-14T09:59:42.270Z,6.25
2022-12-14T10:02:31.784Z,6.00
2022-12-14T10:05:07.757Z,7.00
2022-12-14T10:07:37.266Z,6.50
2022-12-14T10:10:05.904Z,3.00
2022-12-14T10:12:44.271Z,7.50
2022-12-14T10:15:18.795Z,6.00
2022-12-14T10:18:00.090Z,7.00
2022-12-14T10:20:31.945Z,5.75
2022-12-14T10:22:59.338Z,7.00
2022-12-14T10:25:27.432Z,8.00
2022-12-14T10:28:13.140Z,5.50
2022-12-14T10:30:41.799Z,4.75
2022-12-14T10:33:13.550Z,7.00
2022-12-14T10:35:44.453Z,7.00
2022-12-14T10:38:14.240Z,6.50
2022-12-14T10:40:44.504Z,6.25
2022-12-14T10:43:35.880Z,5.00
2022-12-14T10:46:13.418Z,6.00
2022-12-14T10:48:46.087Z,6.75
2022-12-14T10:51:15.196Z,7.00
2022-12-14T10:53:45.319Z,6.00
2022-12-14T10:56:15.939Z,3.00
2022-12-14T10:58:44.736Z,6.50
2022-12-14T11:01:13.906Z,2.50
2022-12-14T11:03:42.142Z,6.75
2022-12-14T11:06:13.563Z,7.00
2022-12-14T11:08:43.504Z,5.00
2022-12-14T11:11:19.242Z,6.00
2022-12-14T11:13:52.467Z,6.25
2022-12-14T11:16:33.750Z,5.25
2022-12-14T11:19:04.410Z,6.00
2022-12-14T11:21:33.267Z,6.00
2022-12-14T11:24:01.351Z,5.00
2022-12-14T11:26:31.788Z,1.00
2022-12-14T11:29:01.258Z,6.00
2022-12-14T11:31:31.819Z,6.00
2022-12-14T11:33:59.695Z,5.75
2022-12-14T11:36:28.125Z,6.00
2022-12-14T11:38:56.420Z,5.00
2022-12-14T11:41:23.798Z,5.50
2022-12-14T11:44:06.116Z,6.75
2022-12-14T11:46:46.178Z,4.00
2022-12-14T11:49:21.082Z,5.75
2022-12-14T11:52:01.979Z,5.50
2022-12-14T11:54:29.765Z,5.00
2022-12-14T11:56:59.193Z,5.00
2022-12-14T11:59:29.928Z,5.00
2022-12-14T12:01:57.738Z,4.00
2022-12-14T12:04:25.218Z,5.00
2022-12-14T12:06:53.043Z,5.00
2022-12-14T12:09:26.479Z,5.50
2022-12-14T12:11:54.041Z,5.00
2022-12-14T12:14:27.732Z,4.00
2022-12-14T12:16:57.706Z,5.00
2022-12-14T12:19:25.994Z,5.50
2022-12-14T12:21:53.398Z,5.75
2022-12-14T12:24:22.560Z,6.00
2022-12-14T12:26:51.372Z,5.00
2022-12-14T12:29:22.965Z,4.75
2022-12-14T12:31:53.301Z,4.75
2022-12-14T12:34:23.927Z,4.00
2022-12-14T12:37:24.592Z,4.00
2022-12-14T12:39:39.560Z,5.00
2022-12-14T12:42:24.188Z,4.00
2022-12-14T12:44:53.383Z,4.00
2022-12-14T12:47:29.892Z,4.25
2022-12-14T12:50:06.264Z,4.75
2022-12-14T12:52:35.233Z,4.75
2022-12-14T12:55:03.917Z,4.25
2022-12-14T12:57:33.706Z,5.25
2022-12-14T13:00:01.132Z,5.00
2022-12-14T13:02:31.163Z,4.00
2022-12-14T13:05:16.275Z,4.00
2022-12-14T13:07:49.393Z,5.25
2022-12-14T13:10:19.786Z,5.00
2022-12-14T13:12:48.562Z,5.00
2022-12-14T13:15:19.081Z,5.00
2022-12-14T13:17:49.294Z,4.25
2022-12-14T13:20:20.269Z,5.00
2022-12-14T13:22:49.625Z,5.00
2022-12-14T13:25:19.221Z,4.25
2022-12-14T13:27:58.323Z,5.00
2022-12-14T13:30:32.195Z,4.00
2022-12-14T13:33:13.994Z,4.75
2022-12-14T13:35:49.392Z,5.50
2022-12-14T13:38:33.564Z,4.75
2022-12-14T13:41:20.160Z,4.00
2022-12-14T13:43:58.324Z,3.25
2022-12-14T13:46:26.647Z,4.50
2022-12-14T13:48:55.393Z,4.00
2022-12-14T13:51:28.197Z,5.25
2022-12-14T13:53:58.976Z,4.25
2022-12-14T13:56:33.327Z,5.25
2022-12-14T13:59:01.216Z,5.25
2022-12-14T14:01:59.459Z,5.00
2022-12-14T14:04:28.010Z,5.00
2022-12-14T14:06:55.603Z,5.00
2022-12-14T14:09:50.154Z,4.00
2022-12-14T14:12:38.406Z,5.00
2022-12-14T14:15:31.487Z,5.00
2022-12-14T14:18:05.310Z,5.00
2022-12-14T14:20:37.237Z,5.00
2022-12-14T14:23:27.520Z,5.00
2022-12-14T14:26:20.258Z,6.00
2022-12-14T14:29:04.645Z,4.50
2022-12-14T14:31:45.362Z,5.25
2022-12-14T14:34:21.736Z,4.50
2022-12-14T14:36:49.500Z,5.00
2022-12-14T14:40:00.683Z,5.25
2022-12-14T14:42:31.719Z,6.00
2022-12-14T14:44:59.711Z,4.75
2022-12-14T14:47:29.367Z,5.00
2022-12-14T14:49:58.763Z,5.00
2022-12-14T14:52:45.469Z,5.00
2022-12-14T14:55:53.346Z,4.00
2022-12-14T14:58:25.062Z,5.75
2022-12-14T15:00:54.587Z,6.25
2022-12-14T15:03:24.148Z,6.00
2022-12-14T15:05:51.641Z,4.00
2022-12-14T15:08:20.319Z,6.00
2022-12-14T15:10:47.739Z,6.00
2022-12-14T15:13:18.021Z,2.50
2022-12-14T15:15:47.234Z,6.00
2022-12-14T15:18:15.704Z,5.50
2022-12-14T15:20:53.870Z,3.75
2022-12-14T15:23:21.290Z,4.75
2022-12-14T15:25:56.301Z,5.50
2022-12-14T15:28:24.052Z,5.75
2022-12-14T15:30:54.916Z,5.50
2022-12-14T15:33:25.009Z,5.00
2022-12-14T15:35:52.419Z,6.00
2022-12-14T15:38:23.248Z,7.00
2022-12-14T15:40:54.821Z,4.25
2022-12-14T15:43:23.520Z,5.75
2022-12-14T15:45:54.123Z,2.50
2022-12-14T15:48:23.107Z,5.00
2022-12-14T15:50:50.892Z,5.25
2022-12-14T15:53:19.810Z,6.00
2022-12-14T15:55:52.369Z,6.00
2022-12-14T15:58:25.454Z,5.00
2022-12-14T16:00:54.234Z,4.75
2022-12-14T16:03:27.327Z,7.00
2022-12-14T16:05:54.943Z,5.00
2022-12-14T16:08:22.549Z,7.00
2022-12-14T16:10:50.564Z,6.00
2022-12-14T16:13:20.789Z,6.25
2022-12-14T16:15:49.343Z,6.00
2022-12-14T16:18:18.607Z,7.00
2022-12-14T16:20:47.096Z,7.00
2022-12-14T16:23:27.717Z,6.00
2022-12-14T16:25:58.040Z,7.00
2022-12-14T16:28:28.380Z,6.00
2022-12-14T16:30:57.276Z,8.00
2022-12-14T16:33:26.116Z,7.00
2022-12-14T16:36:01.623Z,7.00
2022-12-14T16:38:29.025Z,8.50
2022-12-14T16:40:57.582Z,6.50
2022-12-14T16:43:28.639Z,8.00
2022-12-14T16:46:13.545Z,7.75
2022-12-14T16:49:04.514Z,7.25
2022-12-14T16:51:58.746Z,7.00
2022-12-14T16:54:23.507Z,6.00
2022-12-14T16:56:50.900Z,6.00
2022-12-14T16:59:21.137Z,8.00
2022-12-14T17:01:49.946Z,8.00
2022-12-14T17:04:20.846Z,7.00
2022-12-14T17:06:49.389Z,7.50
2022-12-14T17:09:20.296Z,7.00
2022-12-14T17:11:48.006Z,7.75
2022-12-14T17:14:15.700Z,8.00
2022-12-14T17:16:43.229Z,7.00
2022-12-14T17:19:14.298Z,7.25
2022-12-14T17:21:46.307Z,6.50
2022-12-14T17:24:15.530Z,8.00
2022-12-14T17:26:42.909Z,8.25
2022-12-14T17:29:17.458Z,7.50
2022-12-14T17:31:49.758Z,6.75
2022-12-14T17:34:17.876Z,6.75
2022-12-14T17:36:46.669Z,7.25
2022-12-14T17:39:14.075Z,8.25
2022-12-14T17:41:42.715Z,9.00
2022-12-14T17:44:13.828Z,9.00
2022-12-14T17:46:41.339Z,7.75
2022-12-14T17:49:08.988Z,7.25
2022-12-14T17:51:40.981Z,8.50
2022-12-14T17:54:13.062Z,8.25
2022-12-14T17:56:40.474Z,6.00
2022-12-14T17:59:07.874Z,6.50
2022-12-14T18:01:35.408Z,6.50
2022-12-14T18:04:02.920Z,8.00
2022-12-14T18:06:30.425Z,7.25
2022-12-14T18:08:57.847Z,7.75
2022-12-14T18:11:27.766Z,7.50
2022-12-14T18:13:55.180Z,10.00
2022-12-14T18:16:23.614Z,6.50
2022-12-14T18:18:51.238Z,21.75
2022-12-14T18:21:19.570Z,19.25
2022-12-14T18:23:47.168Z,21.50
2022-12-14T18:26:20.607Z,22.25
2022-12-14T18:28:49.310Z,24.75
2022-12-14T18:31:21.485Z,22.50
2022-12-14T18:33:48.937Z,21.00
2022-12-14T18:36:16.424Z,24.50
2022-12-14T18:38:43.850Z,26.75
2022-12-14T18:41:17.583Z,29.00
2022-12-14T18:43:45.090Z,26.25
2022-12-14T18:46:13.921Z,27.75
2022-12-14T18:48:41.661Z,26.00
2022-12-14T18:51:11.865Z,30.25
2022-12-14T18:53:42.068Z,29.75
2022-12-14T18:56:10.257Z,34.75
2022-12-14T18:58:37.916Z,28.25
2022-12-14T19:01:05.477Z,15.75
2022-12-14T19:03:35.309Z,27.25
2022-12-14T19:06:26.705Z,29.00
2022-12-14T19:08:51.478Z,29.00
2022-12-14T19:11:21.445Z,25.75
2022-12-14T19:13:48.846Z,33.25
2022-12-14T19:16:16.607Z,33.50
2022-12-14T19:18:45.339Z,25.00
2022-12-14T19:21:12.748Z,21.00
2022-12-14T19:23:40.142Z,28.75
2022-12-14T19:26:07.557Z,27.75
2022-12-14T19:28:35.092Z,28.50
2022-12-14T19:31:02.547Z,28.00
2022-12-14T19:33:30.388Z,34.75
2022-12-14T19:36:00.146Z,27.00
2022-12-14T19:38:28.341Z,30.00
2022-12-14T19:41:00.495Z,27.25
2022-12-14T19:43:29.178Z,26.50
2022-12-14T19:45:56.807Z,27.50
2022-12-14T19:48:24.238Z,29.50
2022-12-14T19:50:51.670Z,25.75
2022-12-14T19:53:27.545Z,28.50
2022-12-14T19:55:54.994Z,27.50
2022-12-14T19:58:24.791Z,31.50
2022-12-14T20:00:52.276Z,24.75
2022-12-14T20:03:19.976Z,20.25
2022-12-14T20:05:52.246Z,26.00
2022-12-14T20:08:20.965Z,23.50
2022-12-14T20:10:48.381Z,24.25
2022-12-14T20:13:15.800Z,27.75
2022-12-14T20:15:48.845Z,27.00
2022-12-14T20:18:16.311Z,21.75
2022-12-14T20:20:43.838Z,25.00
2022-12-14T20:23:17.251Z,23.25
2022-12-14T20:25:45.952Z,24.50
2022-12-14T20:28:13.354Z,23.75
2022-12-14T20:30:43.211Z,22.25
2022-12-14T20:33:10.794Z,28.75
2022-12-14T20:35:38.190Z,24.75
2022-12-14T20:38:05.606Z,28.00
2022-12-14T20:40:38.010Z,25.50
2022-12-14T20:43:07.848Z,23.75
2022-12-14T20:45:38.189Z,25.25
2022-12-14T20:48:06.428Z,23.75
2022-12-14T20:50:33.846Z,21.50
2022-12-14T20:53:01.259Z,25.25
2022-12-14T20:55:28.974Z,24.25
2022-12-14T20:57:56.353Z,23.00
2022-12-14T21:00:25.069Z,23.25
2022-12-14T21:02:52.707Z,27.00
2022-12-14T21:05:20.260Z,26.50
2022-12-14T21:07:47.879Z,22.75
2022-12-14T21:10:15.353Z,24.50
2022-12-14T21:12:41.828Z,24.00
2022-12-14T21:15:09.531Z,15.25
2022-12-14T21:17:39.062Z,22.75
2022-12-14T21:20:07.262Z,24.50
2022-12-14T21:22:35.278Z,25.00
2022-12-14T21:25:04.641Z,23.75
2022-12-14T21:27:32.633Z,24.25
2022-12-14T21:30:00.407Z,25.25
2022-12-14T21:32:27.923Z,25.50
2022-12-14T21:34:56.632Z,25.25
2022-12-14T21:37:24.166Z,22.75
2022-12-14T21:39:54.159Z,21.75
2022-12-14T21:42:22.144Z,25.75
2022-12-14T21:44:50.329Z,23.75
2022-12-14T21:47:19.195Z,22.00
2022-12-14T21:49:46.751Z,27.25
2022-12-14T21:52:17.338Z,25.75
2022-12-14T21:54:44.777Z,26.00
2022-12-14T21:57:31.975Z,24.00
2022-12-14T21:59:59.411Z,25.00
2022-12-14T22:02:27.025Z,22.50
2022-12-14T22:04:56.233Z,24.50
2022-12-14T22:07:26.572Z,26.75
2022-12-14T22:09:53.965Z,21.25
2022-12-14T22:12:21.425Z,27.25
2022-12-14T22:14:49.258Z,25.00
2022-12-14T22:17:16.752Z,25.00
2022-12-14T22:19:44.153Z,24.75
2022-12-14T22:22:13.591Z,23.25
2022-12-14T22:24:42.368Z,26.00
2022-12-14T22:27:09.962Z,20.75
2022-12-14T22:29:37.387Z,22.50
2022-12-14T22:32:05.121Z,23.75
2022-12-14T22:34:32.600Z,22.50
2022-12-14T22:36:59.998Z,23.25
2022-12-14T22:39:27.426Z,23.00
2022-12-14T22:41:56.489Z,23.00
2022-12-14T22:44:23.885Z,26.00
2022-12-14T22:46:51.335Z,23.25
2022-12-14T22:49:19.598Z,21.50
2022-12-14T22:51:47.002Z,21.50
2022-12-14T22:54:16.968Z,19.25
2022-12-14T22:56:45.067Z,24.00
2022-12-14T22:59:15.554Z,15.50
2022-12-14T23:01:43.064Z,21.75
2022-12-14T23:04:17.210Z,25.25
2022-12-14T23:06:44.783Z,21.25
2022-12-14T23:09:29.842Z,21.75
2022-12-14T23:12:19.678Z,21.50
2022-12-14T23:15:07.965Z,24.00
2022-12-14T23:17:52.793Z,26.50
2022-12-14T23:20:37.999Z,21.00
2022-12-14T23:23:23.922Z,22.25
2022-12-14T23:26:09.270Z,22.25
2022-12-14T23:28:54.075Z,20.75
2022-12-14T23:31:40.623Z,23.75
2022-12-14T23:34:25.379Z,20.50
2022-12-14T23:37:13.814Z,25.25
2022-12-14T23:40:01.481Z,0.00
2022-12-14T23:42:46.856Z,23.50
2022-12-14T23:45:32.177Z,25.25
2022-12-14T23:48:18.767Z,18.00
2022-12-14T23:51:03.565Z,21.25
2022-12-14T23:53:49.841Z,21.25
2022-12-14T23:56:35.318Z,24.50
2022-12-14T23:59:22.747Z,21.75
